AEA505 LIRF-LGAV
Flight info
| Callsign | AEA505 |
|---|---|
| Flight time | 1h 29m |
| Altitude | 19000 |
| Route | PEPIX L50 UNIXO/N0453F390 DCT LAMEB DCT RUTOM DCT ARA UY144 NEMES |
| Aircraft | B736/M-SDE2E3FGHIRWXY/LB1 |
Departure
| Time | 2026-05-05 09:59 |
|---|---|
| Airport | Rome–Fiumicino Leonardo da Vinci International Airport (LIRF) |
Arrival
| Time | 2026-05-05 11:29 |
|---|---|
| Airport | Athens Eleftherios Venizelos International Airport (LGAV) |
| Time | Latitude | Longitude | Altitude | Speed | Heading |
|---|---|---|---|---|---|
| 2026-05-05 09:10 | 41.79807 | 12.24802 | 13 ft | 0 kts | 250° |
| 2026-05-05 09:46 | 41.79812 | 12.24821 | 14 ft | 4 kts | 247° |
| 2026-05-05 09:46 | 41.79823 | 12.24853 | 15 ft | 4 kts | 237° |
| 2026-05-05 09:47 | 41.79840 | 12.24879 | 13 ft | 4 kts | 205° |
| 2026-05-05 09:47 | 41.79856 | 12.24883 | 16 ft | 0 kts | 160° |
| 2026-05-05 09:52 | 41.79834 | 12.24894 | 15 ft | 9 kts | 159° |
| 2026-05-05 09:52 | 41.79776 | 12.24925 | 13 ft | 9 kts | 152° |
| 2026-05-05 09:52 | 41.79767 | 12.24995 | 13 ft | 9 kts | 57° |
| 2026-05-05 09:52 | 41.79819 | 12.25031 | 15 ft | 9 kts | 24° |
| 2026-05-05 09:53 | 41.79881 | 12.25071 | 14 ft | 12 kts | 26° |
| 2026-05-05 09:53 | 41.79964 | 12.25123 | 14 ft | 15 kts | 26° |
| 2026-05-05 09:53 | 41.80061 | 12.25185 | 13 ft | 16 kts | 26° |
| 2026-05-05 09:53 | 41.80125 | 12.25294 | 13 ft | 15 kts | 69° |
| 2026-05-05 09:54 | 41.80160 | 12.25424 | 13 ft | 14 kts | 71° |
| 2026-05-05 09:54 | 41.80193 | 12.25547 | 13 ft | 14 kts | 69° |
| 2026-05-05 09:54 | 41.80226 | 12.25666 | 13 ft | 13 kts | 69° |
| 2026-05-05 09:54 | 41.80258 | 12.25779 | 13 ft | 13 kts | 69° |
| 2026-05-05 09:55 | 41.80288 | 12.25894 | 15 ft | 14 kts | 71° |
| 2026-05-05 09:55 | 41.80323 | 12.26020 | 13 ft | 15 kts | 70° |
| 2026-05-05 09:55 | 41.80359 | 12.26151 | 13 ft | 15 kts | 70° |
| 2026-05-05 09:55 | 41.80397 | 12.26282 | 14 ft | 16 kts | 70° |
| 2026-05-05 09:56 | 41.80434 | 12.26421 | 17 ft | 16 kts | 70° |
| 2026-05-05 09:56 | 41.80472 | 12.26556 | 14 ft | 15 kts | 70° |
| 2026-05-05 09:56 | 41.80507 | 12.26686 | 16 ft | 15 kts | 70° |
| 2026-05-05 09:56 | 41.80542 | 12.26811 | 13 ft | 14 kts | 70° |
| 2026-05-05 09:57 | 41.80574 | 12.26928 | 12 ft | 13 kts | 70° |
| 2026-05-05 09:57 | 41.80617 | 12.27032 | 12 ft | 13 kts | 33° |
| 2026-05-05 09:57 | 41.80704 | 12.27050 | 12 ft | 13 kts | 6° |
| 2026-05-05 09:57 | 41.80790 | 12.27050 | 12 ft | 12 kts | 345° |
| 2026-05-05 09:58 | 41.80869 | 12.27011 | 12 ft | 12 kts | 341° |
| 2026-05-05 09:58 | 41.80942 | 12.26977 | 12 ft | 8 kts | 341° |
| 2026-05-05 09:58 | 41.80957 | 12.26916 | 12 ft | 8 kts | 250° |
| 2026-05-05 09:58 | 41.80907 | 12.26743 | 12 ft | 47 kts | 249° |
| 2026-05-05 09:59 | 41.80711 | 12.26038 | 17 ft | 112 kts | 250° |
| 2026-05-05 09:59 | 41.80362 | 12.24855 | 63 ft | 154 kts | 248° |
| 2026-05-05 09:59 | 41.80043 | 12.23487 | 469 ft | 160 kts | 249° |
| 2026-05-05 09:59 | 41.79685 | 12.22087 | 1000 ft | 157 kts | 241° |
| 2026-05-05 10:00 | 41.79178 | 12.20895 | 1708 ft | 139 kts | 214° |
| 2026-05-05 10:00 | 41.78383 | 12.20040 | 2120 ft | 161 kts | 216° |
| 2026-05-05 10:00 | 41.77454 | 12.18994 | 2510 ft | 182 kts | 219° |
| 2026-05-05 10:00 | 41.76461 | 12.17873 | 3148 ft | 190 kts | 219° |
| 2026-05-05 10:01 | 41.75343 | 12.16922 | 3848 ft | 195 kts | 196° |
| 2026-05-05 10:01 | 41.73899 | 12.16812 | 4218 ft | 224 kts | 181° |
| 2026-05-05 10:01 | 41.72266 | 12.16889 | 4640 ft | 245 kts | 181° |
| 2026-05-05 10:01 | 41.70518 | 12.16971 | 5315 ft | 259 kts | 181° |
| 2026-05-05 10:02 | 41.68693 | 12.17067 | 6041 ft | 267 kts | 181° |
| 2026-05-05 10:02 | 41.66815 | 12.17162 | 6822 ft | 272 kts | 181° |
| 2026-05-05 10:02 | 41.64923 | 12.17257 | 7737 ft | 272 kts | 182° |
| 2026-05-05 10:02 | 41.63022 | 12.17350 | 8654 ft | 276 kts | 182° |
| 2026-05-05 10:03 | 41.61092 | 12.17442 | 9628 ft | 278 kts | 183° |
| 2026-05-05 10:03 | 41.59142 | 12.17533 | 10473 ft | 286 kts | 183° |
| 2026-05-05 10:03 | 41.57064 | 12.17624 | 10750 ft | 313 kts | 182° |
| 2026-05-05 10:03 | 41.54804 | 12.17592 | 10959 ft | 336 kts | 190° |
| 2026-05-05 10:04 | 41.52497 | 12.17057 | 11526 ft | 345 kts | 195° |
| 2026-05-05 10:04 | 41.50132 | 12.16408 | 12343 ft | 349 kts | 195° |
| 2026-05-05 10:04 | 41.47742 | 12.15764 | 13223 ft | 352 kts | 194° |
| 2026-05-05 10:04 | 41.45321 | 12.15147 | 14078 ft | 356 kts | 194° |
| 2026-05-05 10:05 | 41.42870 | 12.14542 | 14826 ft | 361 kts | 193° |
| 2026-05-05 10:05 | 41.40382 | 12.13935 | 15580 ft | 366 kts | 193° |
| 2026-05-05 10:05 | 41.37860 | 12.13322 | 16334 ft | 371 kts | 194° |
| 2026-05-05 10:05 | 41.35301 | 12.12699 | 17084 ft | 376 kts | 194° |
| 2026-05-05 10:06 | 41.32727 | 12.12207 | 17781 ft | 385 kts | 185° |
| 2026-05-05 10:06 | 41.30028 | 12.12730 | 18452 ft | 400 kts | 167° |
| 2026-05-05 10:06 | 41.27360 | 12.13891 | 18963 ft | 407 kts | 165° |
| 2026-05-05 10:06 | 41.24673 | 12.15120 | 19055 ft | 414 kts | 165° |
| 2026-05-05 10:07 | 41.21894 | 12.16360 | 19072 ft | 428 kts | 166° |
| 2026-05-05 10:07 | 41.19021 | 12.17606 | 19077 ft | 440 kts | 166° |
| 2026-05-05 10:07 | 41.16141 | 12.19072 | 19055 ft | 447 kts | 155° |
| 2026-05-05 10:07 | 41.13677 | 12.21618 | 19086 ft | 453 kts | 139° |
| 2026-05-05 10:08 | 41.11447 | 12.24578 | 19065 ft | 455 kts | 138° |
| 2026-05-05 10:08 | 41.09203 | 12.27552 | 19067 ft | 456 kts | 138° |
| 2026-05-05 10:08 | 41.06978 | 12.30474 | 19068 ft | 456 kts | 139° |
| 2026-05-05 10:08 | 41.04712 | 12.33421 | 19067 ft | 457 kts | 139° |
| 2026-05-05 10:09 | 41.02437 | 12.36358 | 19074 ft | 456 kts | 139° |
| 2026-05-05 10:09 | 41.00161 | 12.39281 | 19082 ft | 456 kts | 139° |
| 2026-05-05 10:09 | 40.97878 | 12.42206 | 19079 ft | 456 kts | 139° |
| 2026-05-05 10:09 | 40.95590 | 12.45133 | 19144 ft | 461 kts | 139° |
| 2026-05-05 10:10 | 40.93287 | 12.48076 | 19686 ft | 460 kts | 139° |
| 2026-05-05 10:10 | 40.90981 | 12.51023 | 20160 ft | 463 kts | 140° |
| 2026-05-05 10:10 | 40.88651 | 12.53996 | 20556 ft | 467 kts | 140° |
| 2026-05-05 10:10 | 40.86334 | 12.56952 | 20919 ft | 471 kts | 140° |
| 2026-05-05 10:11 | 40.83969 | 12.59967 | 21349 ft | 473 kts | 140° |
| 2026-05-05 10:11 | 40.81595 | 12.62991 | 21796 ft | 475 kts | 141° |
| 2026-05-05 10:11 | 40.79216 | 12.66026 | 22227 ft | 477 kts | 140° |
| 2026-05-05 10:11 | 40.77010 | 12.69344 | 22618 ft | 485 kts | 131° |
| 2026-05-05 10:12 | 40.75193 | 12.73140 | 22985 ft | 493 kts | 124° |
| 2026-05-05 10:12 | 40.73519 | 12.77100 | 23323 ft | 496 kts | 123° |
| 2026-05-05 10:12 | 40.71850 | 12.81101 | 23706 ft | 500 kts | 123° |
| 2026-05-05 10:12 | 40.70167 | 12.85125 | 24055 ft | 503 kts | 123° |
| 2026-05-05 10:13 | 40.68476 | 12.89114 | 24428 ft | 507 kts | 124° |
| 2026-05-05 10:13 | 40.66743 | 12.93172 | 24810 ft | 509 kts | 124° |
| 2026-05-05 10:13 | 40.64998 | 12.97243 | 25187 ft | 511 kts | 124° |
| 2026-05-05 10:13 | 40.63244 | 13.01317 | 25489 ft | 512 kts | 124° |
| 2026-05-05 10:14 | 40.61483 | 13.05392 | 25797 ft | 514 kts | 124° |
| 2026-05-05 10:14 | 40.59710 | 13.09479 | 26109 ft | 513 kts | 124° |
| 2026-05-05 10:14 | 40.57950 | 13.13531 | 26493 ft | 509 kts | 123° |
| 2026-05-05 10:14 | 40.56190 | 13.17580 | 26634 ft | 513 kts | 123° |
| 2026-05-05 10:15 | 40.54432 | 13.21616 | 26702 ft | 517 kts | 123° |
| 2026-05-05 10:15 | 40.52642 | 13.25721 | 26901 ft | 517 kts | 123° |
| 2026-05-05 10:15 | 40.50858 | 13.29811 | 27222 ft | 516 kts | 123° |
| 2026-05-05 10:15 | 40.49076 | 13.33891 | 27554 ft | 514 kts | 123° |
| 2026-05-05 10:16 | 40.47296 | 13.37963 | 27866 ft | 514 kts | 123° |
| 2026-05-05 10:16 | 40.45514 | 13.42030 | 28153 ft | 514 kts | 123° |
| 2026-05-05 10:16 | 40.43728 | 13.46102 | 28448 ft | 514 kts | 124° |
| 2026-05-05 10:16 | 40.41968 | 13.50108 | 28766 ft | 514 kts | 123° |
| 2026-05-05 10:17 | 40.40178 | 13.54179 | 28978 ft | 516 kts | 123° |
| 2026-05-05 10:17 | 40.38388 | 13.58244 | 29498 ft | 512 kts | 124° |
| 2026-05-05 10:17 | 40.36610 | 13.62278 | 29944 ft | 512 kts | 124° |
| 2026-05-05 10:17 | 40.34820 | 13.66329 | 30182 ft | 515 kts | 124° |
| 2026-05-05 10:18 | 40.33021 | 13.70395 | 30368 ft | 517 kts | 124° |
| 2026-05-05 10:18 | 40.31209 | 13.74484 | 30644 ft | 519 kts | 124° |
| 2026-05-05 10:18 | 40.29396 | 13.78574 | 31063 ft | 518 kts | 123° |
| 2026-05-05 10:18 | 40.27588 | 13.82648 | 31512 ft | 517 kts | 123° |
| 2026-05-05 10:19 | 40.25808 | 13.86656 | 31919 ft | 516 kts | 123° |
| 2026-05-05 10:19 | 40.24001 | 13.90720 | 32330 ft | 517 kts | 123° |
| 2026-05-05 10:19 | 40.22191 | 13.94781 | 32733 ft | 517 kts | 123° |
| 2026-05-05 10:19 | 40.20378 | 13.98842 | 33159 ft | 517 kts | 123° |
| 2026-05-05 10:20 | 40.18565 | 14.02898 | 33567 ft | 517 kts | 123° |
| 2026-05-05 10:20 | 40.16753 | 14.06947 | 33962 ft | 517 kts | 123° |
| 2026-05-05 10:20 | 40.14937 | 14.11001 | 34332 ft | 516 kts | 122° |
| 2026-05-05 10:20 | 40.13123 | 14.15043 | 34714 ft | 514 kts | 122° |
| 2026-05-05 10:21 | 40.11346 | 14.19002 | 35148 ft | 510 kts | 122° |
| 2026-05-05 10:21 | 40.09558 | 14.22979 | 35631 ft | 505 kts | 122° |
| 2026-05-05 10:21 | 40.07787 | 14.26912 | 36178 ft | 499 kts | 122° |
| 2026-05-05 10:21 | 40.06035 | 14.30799 | 36621 ft | 496 kts | 122° |
| 2026-05-05 10:22 | 40.04286 | 14.34673 | 36949 ft | 495 kts | 122° |
| 2026-05-05 10:22 | 40.02539 | 14.38536 | 37236 ft | 494 kts | 122° |
| 2026-05-05 10:22 | 40.00792 | 14.42393 | 37569 ft | 493 kts | 122° |
| 2026-05-05 10:22 | 39.99054 | 14.46227 | 37943 ft | 490 kts | 122° |
| 2026-05-05 10:23 | 39.97349 | 14.49987 | 38367 ft | 486 kts | 122° |
| 2026-05-05 10:23 | 39.95631 | 14.53768 | 38745 ft | 483 kts | 122° |
| 2026-05-05 10:23 | 39.93922 | 14.57525 | 39008 ft | 482 kts | 122° |
| 2026-05-05 10:23 | 39.92208 | 14.61289 | 39120 ft | 484 kts | 122° |
| 2026-05-05 10:24 | 39.88754 | 14.68857 | 39124 ft | 486 kts | 122° |
| 2026-05-05 10:24 | 39.85309 | 14.76391 | 39125 ft | 483 kts | 122° |
| 2026-05-05 10:25 | 39.81897 | 14.83833 | 39123 ft | 481 kts | 122° |
| 2026-05-05 10:25 | 39.78468 | 14.91297 | 39122 ft | 480 kts | 122° |
| 2026-05-05 10:26 | 39.75041 | 14.98736 | 39123 ft | 480 kts | 122° |
| 2026-05-05 10:26 | 39.71602 | 15.06183 | 39129 ft | 481 kts | 122° |
| 2026-05-05 10:27 | 39.68170 | 15.13599 | 39132 ft | 483 kts | 122° |
| 2026-05-05 10:27 | 39.64699 | 15.21079 | 39130 ft | 485 kts | 122° |
| 2026-05-05 10:28 | 39.61212 | 15.28579 | 39127 ft | 486 kts | 122° |
| 2026-05-05 10:28 | 39.57708 | 15.36095 | 39125 ft | 487 kts | 122° |
| 2026-05-05 10:29 | 39.54221 | 15.43559 | 39122 ft | 487 kts | 122° |
| 2026-05-05 10:29 | 39.50705 | 15.51066 | 39123 ft | 487 kts | 122° |
| 2026-05-05 10:30 | 39.47187 | 15.58560 | 39124 ft | 487 kts | 122° |
| 2026-05-05 10:30 | 39.43664 | 15.66047 | 39120 ft | 487 kts | 122° |
| 2026-05-05 10:31 | 39.40139 | 15.73520 | 39124 ft | 487 kts | 122° |
| 2026-05-05 10:31 | 39.36634 | 15.80932 | 39116 ft | 486 kts | 122° |
| 2026-05-05 10:32 | 39.33103 | 15.88383 | 39120 ft | 486 kts | 122° |
| 2026-05-05 10:32 | 39.29568 | 15.95825 | 39118 ft | 486 kts | 122° |
| 2026-05-05 10:33 | 39.26052 | 16.03210 | 39114 ft | 486 kts | 122° |
| 2026-05-05 10:33 | 39.22508 | 16.10635 | 39125 ft | 486 kts | 122° |
| 2026-05-05 10:34 | 39.18956 | 16.18061 | 39121 ft | 487 kts | 122° |
| 2026-05-05 10:34 | 39.15396 | 16.25486 | 39118 ft | 487 kts | 123° |
| 2026-05-05 10:35 | 39.11834 | 16.32903 | 39125 ft | 487 kts | 123° |
| 2026-05-05 10:35 | 39.08331 | 16.40301 | 39106 ft | 488 kts | 118° |
| 2026-05-05 10:36 | 39.06002 | 16.48474 | 39133 ft | 487 kts | 104° |
| 2026-05-05 10:36 | 39.04341 | 16.56937 | 39136 ft | 488 kts | 103° |
| 2026-05-05 10:37 | 39.02672 | 16.65410 | 39109 ft | 490 kts | 104° |
| 2026-05-05 10:37 | 39.00951 | 16.73884 | 39108 ft | 490 kts | 104° |
| 2026-05-05 10:38 | 38.99214 | 16.82285 | 39105 ft | 490 kts | 104° |
| 2026-05-05 10:38 | 38.97455 | 16.90745 | 39127 ft | 490 kts | 104° |
| 2026-05-05 10:39 | 38.95692 | 16.99202 | 39128 ft | 490 kts | 104° |
| 2026-05-05 10:39 | 38.93923 | 17.07657 | 39140 ft | 490 kts | 104° |
| 2026-05-05 10:40 | 38.92160 | 17.16053 | 39131 ft | 490 kts | 104° |
| 2026-05-05 10:40 | 38.90380 | 17.24498 | 39126 ft | 490 kts | 104° |
| 2026-05-05 10:41 | 38.88595 | 17.32930 | 39122 ft | 489 kts | 104° |
| 2026-05-05 10:41 | 38.86806 | 17.41352 | 39122 ft | 489 kts | 104° |
| 2026-05-05 10:42 | 38.84127 | 17.53904 | 39118 ft | 488 kts | 104° |
| 2026-05-05 10:43 | 38.82326 | 17.62297 | 39124 ft | 488 kts | 105° |
| 2026-05-05 10:43 | 38.80522 | 17.70675 | 39126 ft | 487 kts | 105° |
| 2026-05-05 10:44 | 38.78713 | 17.79044 | 39130 ft | 487 kts | 105° |
| 2026-05-05 10:44 | 38.76898 | 17.87409 | 39125 ft | 487 kts | 105° |
| 2026-05-05 10:45 | 38.75090 | 17.95711 | 39130 ft | 487 kts | 105° |
| 2026-05-05 10:45 | 38.73264 | 18.04064 | 39131 ft | 487 kts | 105° |
| 2026-05-05 10:46 | 38.71433 | 18.12409 | 39129 ft | 487 kts | 105° |
| 2026-05-05 10:46 | 38.69595 | 18.20753 | 39137 ft | 487 kts | 105° |
| 2026-05-05 10:47 | 38.67751 | 18.29096 | 39137 ft | 487 kts | 105° |
| 2026-05-05 10:47 | 38.65912 | 18.37383 | 39133 ft | 487 kts | 105° |
| 2026-05-05 10:48 | 38.64054 | 18.45723 | 39136 ft | 488 kts | 105° |
| 2026-05-05 10:48 | 38.62186 | 18.54079 | 39140 ft | 489 kts | 105° |
| 2026-05-05 10:49 | 38.60311 | 18.62439 | 39147 ft | 490 kts | 105° |
| 2026-05-05 10:49 | 38.58436 | 18.70763 | 39143 ft | 491 kts | 105° |
| 2026-05-05 10:50 | 38.56540 | 18.79152 | 39155 ft | 492 kts | 105° |
| 2026-05-05 10:50 | 38.54633 | 18.87560 | 39146 ft | 493 kts | 105° |
| 2026-05-05 10:51 | 38.52720 | 18.95971 | 39146 ft | 494 kts | 106° |
| 2026-05-05 10:51 | 38.51029 | 19.04466 | 39154 ft | 493 kts | 100° |
| 2026-05-05 10:52 | 38.49873 | 19.13041 | 39159 ft | 493 kts | 98° |
| 2026-05-05 10:52 | 38.48769 | 19.21693 | 39150 ft | 494 kts | 98° |
| 2026-05-05 10:53 | 38.47609 | 19.30334 | 39147 ft | 494 kts | 98° |
| 2026-05-05 10:53 | 38.46414 | 19.38911 | 39150 ft | 494 kts | 99° |
| 2026-05-05 10:54 | 38.45195 | 19.47540 | 39159 ft | 494 kts | 99° |
| 2026-05-05 10:54 | 38.43972 | 19.56166 | 39152 ft | 494 kts | 99° |
| 2026-05-05 10:55 | 38.42744 | 19.64791 | 39153 ft | 494 kts | 99° |
| 2026-05-05 10:55 | 38.41511 | 19.73412 | 39153 ft | 494 kts | 99° |
| 2026-05-05 10:56 | 38.40281 | 19.81971 | 39160 ft | 494 kts | 98° |
| 2026-05-05 10:56 | 38.39034 | 19.90591 | 39155 ft | 494 kts | 99° |
| 2026-05-05 10:57 | 38.37782 | 19.99207 | 39155 ft | 494 kts | 99° |
| 2026-05-05 10:57 | 38.36523 | 20.07818 | 39155 ft | 494 kts | 99° |
| 2026-05-05 10:58 | 38.35267 | 20.16366 | 39158 ft | 494 kts | 98° |
| 2026-05-05 10:58 | 38.33995 | 20.24980 | 39158 ft | 495 kts | 98° |
| 2026-05-05 10:59 | 38.32716 | 20.33590 | 39158 ft | 495 kts | 99° |
| 2026-05-05 10:59 | 38.31430 | 20.42206 | 39163 ft | 495 kts | 99° |
| 2026-05-05 11:00 | 38.30146 | 20.50765 | 39175 ft | 495 kts | 98° |
| 2026-05-05 11:00 | 38.28845 | 20.59385 | 39159 ft | 496 kts | 98° |
| 2026-05-05 11:01 | 38.27537 | 20.68019 | 39160 ft | 497 kts | 99° |
| 2026-05-05 11:01 | 38.26222 | 20.76647 | 39154 ft | 497 kts | 99° |
| 2026-05-05 11:02 | 38.24906 | 20.85238 | 39161 ft | 498 kts | 98° |
| 2026-05-05 11:02 | 38.23574 | 20.93888 | 39155 ft | 499 kts | 98° |
| 2026-05-05 11:03 | 38.22232 | 21.02557 | 39150 ft | 499 kts | 99° |
| 2026-05-05 11:03 | 38.20885 | 21.11214 | 39152 ft | 500 kts | 99° |
| 2026-05-05 11:04 | 38.19531 | 21.19882 | 39156 ft | 500 kts | 98° |
| 2026-05-05 11:04 | 38.18177 | 21.28497 | 39157 ft | 500 kts | 98° |
| 2026-05-05 11:05 | 38.16810 | 21.37162 | 39162 ft | 501 kts | 98° |
| 2026-05-05 11:05 | 38.14965 | 21.45692 | 39150 ft | 504 kts | 113° |
| 2026-05-05 11:06 | 38.11869 | 21.53680 | 39156 ft | 504 kts | 116° |
| 2026-05-05 11:06 | 38.08703 | 21.61571 | 39140 ft | 504 kts | 116° |
| 2026-05-05 11:07 | 38.05563 | 21.69530 | 39142 ft | 504 kts | 115° |
| 2026-05-05 11:07 | 38.02450 | 21.77509 | 39147 ft | 504 kts | 115° |
| 2026-05-05 11:08 | 37.99340 | 21.85484 | 39142 ft | 505 kts | 115° |
| 2026-05-05 11:08 | 37.96247 | 21.93387 | 39125 ft | 504 kts | 115° |
| 2026-05-05 11:09 | 37.93114 | 22.01369 | 38475 ft | 511 kts | 115° |
| 2026-05-05 11:09 | 37.91534 | 22.05383 | 37734 ft | 508 kts | 115° |
| 2026-05-05 11:09 | 37.89956 | 22.09384 | 37021 ft | 507 kts | 115° |
| 2026-05-05 11:09 | 37.88385 | 22.13364 | 36269 ft | 505 kts | 114° |
| 2026-05-05 11:10 | 37.86815 | 22.17336 | 35475 ft | 505 kts | 114° |
| 2026-05-05 11:10 | 37.85243 | 22.21311 | 34608 ft | 506 kts | 114° |
| 2026-05-05 11:10 | 37.83682 | 22.25253 | 33679 ft | 508 kts | 114° |
| 2026-05-05 11:10 | 37.82097 | 22.29250 | 32661 ft | 510 kts | 114° |
| 2026-05-05 11:11 | 37.80505 | 22.33260 | 31683 ft | 511 kts | 113° |
| 2026-05-05 11:11 | 37.78908 | 22.37276 | 30637 ft | 513 kts | 113° |
| 2026-05-05 11:11 | 37.77302 | 22.41313 | 29480 ft | 515 kts | 113° |
| 2026-05-05 11:11 | 37.75691 | 22.45361 | 28217 ft | 516 kts | 113° |
| 2026-05-05 11:12 | 37.74074 | 22.49416 | 26958 ft | 518 kts | 114° |
| 2026-05-05 11:12 | 37.72459 | 22.53451 | 26081 ft | 511 kts | 114° |
| 2026-05-05 11:12 | 37.70868 | 22.57423 | 25193 ft | 504 kts | 114° |
| 2026-05-05 11:12 | 37.69353 | 22.61319 | 24345 ft | 496 kts | 112° |
| 2026-05-05 11:13 | 37.67931 | 22.65253 | 23441 ft | 490 kts | 111° |
| 2026-05-05 11:13 | 37.66567 | 22.69162 | 22456 ft | 483 kts | 111° |
| 2026-05-05 11:13 | 37.65230 | 22.73016 | 21576 ft | 476 kts | 111° |
| 2026-05-05 11:13 | 37.63907 | 22.76805 | 20719 ft | 468 kts | 111° |
| 2026-05-05 11:14 | 37.62592 | 22.80529 | 19907 ft | 461 kts | 111° |
| 2026-05-05 11:14 | 37.61289 | 22.84190 | 19084 ft | 455 kts | 111° |
| 2026-05-05 11:14 | 37.59995 | 22.87805 | 18242 ft | 450 kts | 112° |
| 2026-05-05 11:14 | 37.59144 | 22.90176 | 17622 ft | 446 kts | 112° |
| 2026-05-05 11:15 | 37.57465 | 22.94846 | 16521 ft | 437 kts | 112° |
| 2026-05-05 11:15 | 37.56218 | 22.98311 | 15711 ft | 430 kts | 112° |
| 2026-05-05 11:15 | 37.54991 | 23.01717 | 14948 ft | 424 kts | 112° |
| 2026-05-05 11:15 | 37.53781 | 23.05076 | 14174 ft | 418 kts | 112° |
| 2026-05-05 11:16 | 37.52587 | 23.08389 | 13351 ft | 413 kts | 112° |
| 2026-05-05 11:16 | 37.51805 | 23.10556 | 12818 ft | 408 kts | 112° |
| 2026-05-05 11:16 | 37.50637 | 23.13789 | 12059 ft | 403 kts | 113° |
| 2026-05-05 11:16 | 37.49483 | 23.16978 | 11317 ft | 397 kts | 113° |
| 2026-05-05 11:17 | 37.48522 | 23.21267 | 10822 ft | 372 kts | 88° |
| 2026-05-05 11:17 | 37.49015 | 23.24333 | 10669 ft | 348 kts | 65° |
| 2026-05-05 11:17 | 37.50128 | 23.26931 | 10549 ft | 329 kts | 57° |
| 2026-05-05 11:17 | 37.51304 | 23.29331 | 10412 ft | 315 kts | 56° |
| 2026-05-05 11:18 | 37.52062 | 23.30861 | 10321 ft | 307 kts | 56° |
| 2026-05-05 11:18 | 37.53164 | 23.33101 | 10203 ft | 295 kts | 56° |
| 2026-05-05 11:18 | 37.54219 | 23.35265 | 10066 ft | 285 kts | 56° |
| 2026-05-05 11:18 | 37.55231 | 23.37363 | 9738 ft | 282 kts | 57° |
| 2026-05-05 11:19 | 37.56244 | 23.39474 | 9312 ft | 282 kts | 57° |
| 2026-05-05 11:19 | 37.57255 | 23.41592 | 8912 ft | 281 kts | 57° |
| 2026-05-05 11:19 | 37.58255 | 23.43690 | 8566 ft | 278 kts | 56° |
| 2026-05-05 11:19 | 37.59248 | 23.45774 | 8221 ft | 276 kts | 57° |
| 2026-05-05 11:20 | 37.60230 | 23.47841 | 7891 ft | 274 kts | 57° |
| 2026-05-05 11:20 | 37.61203 | 23.49890 | 7555 ft | 271 kts | 57° |
| 2026-05-05 11:20 | 37.62155 | 23.51898 | 7233 ft | 269 kts | 57° |
| 2026-05-05 11:20 | 37.63109 | 23.53909 | 6910 ft | 267 kts | 57° |
| 2026-05-05 11:21 | 37.64057 | 23.55911 | 6586 ft | 265 kts | 57° |
| 2026-05-05 11:21 | 37.64998 | 23.57896 | 6256 ft | 263 kts | 57° |
| 2026-05-05 11:21 | 37.65932 | 23.59871 | 5926 ft | 261 kts | 57° |
| 2026-05-05 11:21 | 37.66857 | 23.61826 | 5611 ft | 259 kts | 57° |
| 2026-05-05 11:22 | 37.67779 | 23.63777 | 5276 ft | 258 kts | 57° |
| 2026-05-05 11:22 | 37.68695 | 23.65714 | 4966 ft | 256 kts | 57° |
| 2026-05-05 11:22 | 37.69594 | 23.67616 | 4646 ft | 255 kts | 57° |
| 2026-05-05 11:22 | 37.70500 | 23.69535 | 4335 ft | 254 kts | 57° |
| 2026-05-05 11:23 | 37.71388 | 23.71420 | 4211 ft | 245 kts | 57° |
| 2026-05-05 11:23 | 37.72378 | 23.73105 | 4064 ft | 234 kts | 37° |
| 2026-05-05 11:23 | 37.73688 | 23.74234 | 3977 ft | 223 kts | 32° |
| 2026-05-05 11:23 | 37.74916 | 23.75384 | 3878 ft | 216 kts | 34° |
| 2026-05-05 11:24 | 37.76075 | 23.76507 | 3805 ft | 204 kts | 34° |
| 2026-05-05 11:24 | 37.77164 | 23.77557 | 3694 ft | 190 kts | 34° |
| 2026-05-05 11:24 | 37.78199 | 23.78550 | 3621 ft | 186 kts | 34° |
| 2026-05-05 11:24 | 37.79243 | 23.79546 | 3445 ft | 190 kts | 34° |
| 2026-05-05 11:25 | 37.80290 | 23.80548 | 3200 ft | 187 kts | 34° |
| 2026-05-05 11:25 | 37.81300 | 23.81514 | 2961 ft | 183 kts | 34° |
| 2026-05-05 11:25 | 37.82317 | 23.82488 | 2743 ft | 186 kts | 34° |
| 2026-05-05 11:25 | 37.83357 | 23.83480 | 2499 ft | 186 kts | 36° |
| 2026-05-05 11:26 | 37.84383 | 23.84460 | 2233 ft | 182 kts | 34° |
| 2026-05-05 11:26 | 37.85363 | 23.85399 | 2005 ft | 171 kts | 33° |
| 2026-05-05 11:26 | 37.86274 | 23.86271 | 1809 ft | 156 kts | 35° |
| 2026-05-05 11:26 | 37.87109 | 23.87069 | 1568 ft | 144 kts | 34° |
| 2026-05-05 11:27 | 37.87890 | 23.87815 | 1416 ft | 142 kts | 34° |
| 2026-05-05 11:27 | 37.88687 | 23.88572 | 1206 ft | 140 kts | 37° |
| 2026-05-05 11:27 | 37.89438 | 23.89288 | 1015 ft | 135 kts | 38° |
| 2026-05-05 11:27 | 37.90172 | 23.89991 | 861 ft | 131 kts | 39° |
| 2026-05-05 11:28 | 37.90906 | 23.90687 | 677 ft | 133 kts | 41° |
| 2026-05-05 11:28 | 37.91634 | 23.91389 | 488 ft | 131 kts | 41° |
| 2026-05-05 11:28 | 37.92351 | 23.92084 | 332 ft | 128 kts | 37° |
| 2026-05-05 11:28 | 37.92996 | 23.92696 | 292 ft | 93 kts | 37° |
| 2026-05-05 11:29 | 37.93374 | 23.93052 | 291 ft | 43 kts | 37° |
| 2026-05-05 11:29 | 37.93544 | 23.93249 | 289 ft | 22 kts | 54° |
| 2026-05-05 11:29 | 37.93613 | 23.93403 | 295 ft | 17 kts | 66° |
| 2026-05-05 11:29 | 37.93654 | 23.93523 | 297 ft | 13 kts | 67° |
| 2026-05-05 11:30 | 37.93675 | 23.93619 | 300 ft | 10 kts | 93° |
| 2026-05-05 11:30 | 37.93649 | 23.93683 | 300 ft | 7 kts | 137° |
| 2026-05-05 11:30 | 37.93604 | 23.93694 | 299 ft | 8 kts | 200° |
| 2026-05-05 11:30 | 37.93552 | 23.93647 | 301 ft | 11 kts | 216° |
| 2026-05-05 11:31 | 37.93487 | 23.93586 | 299 ft | 13 kts | 217° |
| 2026-05-05 11:31 | 37.93405 | 23.93523 | 299 ft | 14 kts | 186° |
| 2026-05-05 11:31 | 37.93335 | 23.93602 | 300 ft | 14 kts | 126° |
| 2026-05-05 11:31 | 37.93280 | 23.93698 | 300 ft | 13 kts | 126° |
| 2026-05-05 11:32 | 37.93225 | 23.93788 | 300 ft | 13 kts | 129° |
| 2026-05-05 11:32 | 37.93170 | 23.93875 | 301 ft | 12 kts | 127° |
| 2026-05-05 11:32 | 37.93119 | 23.93960 | 300 ft | 12 kts | 127° |
| 2026-05-05 11:32 | 37.93100 | 23.94055 | 302 ft | 12 kts | 63° |
| 2026-05-05 11:33 | 37.93164 | 23.94117 | 300 ft | 12 kts | 35° |
| 2026-05-05 11:33 | 37.93227 | 23.94178 | 302 ft | 11 kts | 36° |
| 2026-05-05 11:33 | 37.93284 | 23.94243 | 301 ft | 11 kts | 63° |
| 2026-05-05 11:33 | 37.93262 | 23.94326 | 300 ft | 11 kts | 128° |
| 2026-05-05 11:34 | 37.93218 | 23.94399 | 301 ft | 10 kts | 127° |
| 2026-05-05 11:34 | 37.93176 | 23.94471 | 300 ft | 10 kts | 126° |
| 2026-05-05 11:34 | 37.93168 | 23.94547 | 301 ft | 10 kts | 45° |
| 2026-05-05 11:34 | 37.93222 | 23.94597 | 300 ft | 10 kts | 37° |
| 2026-05-05 11:35 | 37.93273 | 23.94647 | 301 ft | 9 kts | 38° |
| 2026-05-05 11:35 | 37.93324 | 23.94696 | 300 ft | 9 kts | 37° |
| 2026-05-05 11:35 | 37.93378 | 23.94716 | 300 ft | 6 kts | 324° |
| 2026-05-05 11:35 | 37.93399 | 23.94674 | 301 ft | 5 kts | 308° |
| 2026-05-05 11:36 | 37.93413 | 23.94650 | 300 ft | 0 kts | 308° |